KPZQ METAR Reports


Rogers City, Presque Isle County Airport, MI, United States (KPZQ) 45-24-25N 083-48-46W
Sep 27, 2022 - 09:35 AM EDT / 2022.09.27 1335 UTC
Wind: from the N (350 degrees) at 7 MPH (6 KT) gusting to 17 MPH (15 KT):0
Visibility: 10 mile(s):0
Sky conditions: overcast
Temperature: 53.4 F (11.9 C)
Dew Point: 48.9 F (9.4 C)
Relative Humidity: 84%
Pressure (altimeter): 29.83 in. Hg (1010 hPa)
ob: KPZQ 271335Z AUTO 35006G15KT 10SM BKN016 OVC021 12/09 A2983 RMK AO2 T01190094
cycle: 13

 

Rogers City METAR Meteogram

Weather Chart

Nearby METAR Reports

KPZQ - Rogers City, Michigan, USA
Distance from station: SSW 1mi, 2km
Updated: Tue, 27-Sep-2022 9:35am EDT
Overcast
Overcast
 Wind from N
Wind: N 7 mph , 11 km/h, Gust: 17 mph , 28 km/h
Temperature: 54°F , 12°C
Dew Point: 48°F , 9°C
Humidity: 82%
Barometer: 29.83 inHg , 1010.2 hPa
Clouds: Overcast
Visibility: 10 miles , 16 km
Cloud details: Mostly cloudy 1600 ft
Overcast 2100 ft
2022/09/27 13:35 KPZQ 271335Z AUTO 35006G15KT 10SM BKN016 OVC021 12/09 A2983 RMK AO2 T01190094
KAPN - Alpena, Michigan, USA
Distance from station: SSE 27mi, 43km
Updated: Tue, 27-Sep-2022 8:54am EDT
NOT Current
Light rain, Overcast
Light rain, Overcast
 Wind from W
Wind: W 6 mph , 9 km/h
Temperature: 52°F , 11°C
Dew Point: 50°F , 10°C
Humidity: 94%
Barometer: 29.79 inHg , 1008.8 hPa
Summary: Light rain
Clouds: Overcast
Visibility: 10 miles , 16 km
Cloud details: Few Clouds 1300 ft
Mostly cloudy 2100 ft
Overcast 4200 ft
2022/09/27 12:54 KAPN 271254Z AUTO 28005KT 10SM -RA FEW013 BKN021 OVC042 11/10 A2979 RMK AO2 SLP091 P0006 T01060100
 
KSLH - Cheboygan, Michigan, USA
Distance from station: WNW 38mi, 61km
Updated: Tue, 27-Sep-2022 9:35am EDT
Overcast
Overcast
 Wind from N
Wind: N 10 mph , 17 km/h, Gust: 17 mph , 28 km/h
Temperature: 50°F , 10°C
Wind Chill: 46°F , 8°C
Dew Point: 48°F , 9°C
Humidity: 94%
Barometer: 29.84 inHg , 1010.5 hPa
Clouds: Overcast
Visibility: 10 miles , 16 km
Cloud details: Partly cloudy 1500 ft
Overcast 2100 ft
2022/09/27 13:35 KSLH 271335Z AUTO 35009G15KT 10SM SCT015 OVC021 10/09 A2984 RMK AO2
KDRM - Drummond Is, Michigan, USA
Distance from station: N 40mi, 65km
Updated: Tue, 27-Sep-2022 9:35am EDT
Overcast
Overcast
 Wind from N
Wind: N 9 mph , 15 km/h
Temperature: 50°F , 10°C
Wind Chill: 46°F , 8°C
Dew Point: 46°F , 8°C
Humidity: 88%
Barometer: 29.83 inHg , 1010.2 hPa
Clouds: Overcast
Visibility: 10 miles , 16 km
Cloud details: Overcast 1900 ft
2022/09/27 13:35 KDRM 271335Z AUTO 35008KT 10SM OVC019 10/08 A2983 RMK AO2 T01040077
 
KPLN - Pellston, Michigan, USA
Distance from station: WNW 49mi, 79km
Updated: Tue, 27-Sep-2022 9:42am EDT
Light rain, Overcast
Light rain, Overcast
 Wind from N
Wind: N 13 mph , 20 km/h
Temperature: 52°F , 11°C
Dew Point: 48°F , 9°C
Humidity: 88%
Barometer: 29.86 inHg , 1011.2 hPa
Summary: Light rain
Clouds: Overcast
Visibility: 10 miles , 16 km
Cloud details: Mostly cloudy 1700 ft
Mostly cloudy 3200 ft
Overcast 4500 ft
2022/09/27 13:42 KPLN 271342Z AUTO 35011KT 10SM -RA BKN017 BKN032 OVC045 11/09 A2986 RMK AO2 P0000 T01060089
KMCD - Mackinac Island, Michigan, USA
Distance from station: NW 50mi, 80km
Updated: Tue, 27-Sep-2022 9:35am EDT
Overcast
Overcast
 Wind from N
Wind: N 10 mph , 17 km/h, Gust: 16 mph , 26 km/h
Temperature: 50°F , 10°C
Wind Chill: 46°F , 8°C
Dew Point: 50°F , 10°C
Humidity: 100%
Barometer: 29.85 inHg , 1010.8 hPa
Clouds: Overcast
Visibility: 10 miles , 16 km
Cloud details: Mostly cloudy 1100 ft
Mostly cloudy 1700 ft
Overcast 6000 ft
2022/09/27 13:35 KMCD 271335Z AUTO 36009G14KT 10SM BKN011 BKN017 OVC060 10/10 A2985 RMK AO2 T00960096